Time;durP1;ratioP1;P1;durP2;ratioP2;P2;SDS_P1;SDS_P2;PMS_P1;PMS_P2;Temp;Humidity;BMP_temperature;BMP_pressure;BME280_temperature;BME280_humidity;BME280_pressure;Samples;Min_cycle;Max_cycle;Signal;HPM_P1;HPM_P2
2022/08/12 00:43:17;;;;;;;6.68;4.20;;;18.40;99.90;;;;;;4987318;28;20058;-89
2022/08/12 00:48:27;;;;;;;5.05;4.00;;;18.40;99.90;;;;;;5000725;28;20046;-88
2022/08/12 00:50:54;;;;;;;6.63;3.97;;;18.40;99.90;;;;;;5000223;28;20478;-88
2022/08/12 00:53:20;;;;;;;7.78;4.47;;;18.40;99.90;;;;;;5000633;28;20050;-89
2022/08/12 00:55:46;;;;;;;6.70;5.15;;;18.40;99.90;;;;;;5002703;28;20046;-88
2022/08/12 00:58:16;;;;;;;6.85;4.32;;;18.40;99.90;;;;;;5000667;28;20046;-88
2022/08/12 01:00:42;;;;;;;5.15;4.60;;;18.30;99.90;;;;;;5018082;28;20485;-89
2022/08/12 01:03:08;;;;;;;4.38;3.88;;;18.30;99.90;;;;;;5000996;28;20054;-89
2022/08/12 01:13:47;;;;;;;;;;;17.90;99.90;;;;;;5004606;28;20046;-87
2022/08/12 01:16:15;;;;;;;6.40;5.57;;;17.70;99.90;;;;;;5023737;28;19906;-88
2022/08/12 01:18:41;;;;;;;6.90;4.85;;;17.70;99.90;;;;;;5005147;28;20046;-89
2022/08/12 01:21:48;;;;;;;8.60;4.80;;;17.70;99.90;;;;;;4985048;28;20101;-91
2022/08/12 01:24:36;;;;;;;6.03;5.43;;;17.70;99.90;;;;;;4966957;28;20172;-89
2022/08/12 01:27:02;;;;;;;6.45;5.28;;;17.60;99.90;;;;;;5031494;28;20110;-91
2022/08/12 01:29:30;;;;;;;6.05;5.03;;;17.50;99.90;;;;;;5021934;28;20053;-90
2022/08/12 01:31:57;;;;;;;5.78;5.28;;;17.50;99.90;;;;;;5039903;28;20030;-90
2022/08/12 01:34:27;;;;;;;7.68;5.57;;;17.40;99.90;;;;;;5012477;28;20406;-91
2022/08/12 01:36:59;;;;;;;5.97;5.10;;;17.40;99.90;;;;;;5010630;28;20097;-90
2022/08/12 01:39:32;;;;;;;7.05;6.35;;;17.60;99.90;;;;;;5000096;28;20122;-92
2022/08/12 01:42:03;;;;;;;7.85;5.35;;;17.60;99.90;;;;;;4997883;28;20049;-90
2022/08/12 01:44:30;;;;;;;7.20;5.93;;;17.50;99.90;;;;;;5015020;28;20453;-90
2022/08/12 01:47:17;;;;;;;8.55;6.15;;;17.30;99.90;;;;;;4999422;28;20042;-90
2022/08/12 01:50:13;;;;;;;9.75;6.47;;;17.20;99.90;;;;;;4982534;28;20133;-90
2022/08/12 01:52:55;;;;;;;9.23;7.63;;;17.20;99.90;;;;;;4997618;28;20118;-89
2022/08/12 01:55:27;;;;;;;10.38;7.65;;;17.10;99.90;;;;;;4997235;28;20101;-88
2022/08/12 01:58:11;;;;;;;12.30;8.50;;;17.00;99.90;;;;;;4997580;28;20101;-89
2022/08/12 02:00:50;;;;;;;9.43;8.52;;;17.00;99.90;;;;;;5014396;28;20125;-89
2022/08/12 02:11:59;;;;;;;11.80;8.75;;;17.00;99.90;;;;;;4983222;28;20050;-88
2022/08/12 02:14:47;;;;;;;9.60;8.57;;;16.90;99.90;;;;;;4997397;28;20042;-89
2022/08/12 02:17:34;;;;;;;11.00;8.93;;;16.90;99.90;;;;;;4996549;28;20146;-89
2022/08/12 02:20:05;;;;;;;11.38;9.05;;;16.90;99.90;;;;;;4997574;28;20090;-90
2022/08/12 02:22:38;;;;;;;10.93;9.82;;;16.80;99.90;;;;;;5012749;28;20049;-89
2022/08/12 02:25:32;;;;;;;10.68;9.52;;;16.80;99.90;;;;;;4996222;28;20046;-90
2022/08/12 02:27:59;;;;;;;11.30;9.68;;;16.70;99.90;;;;;;4992451;28;20046;-89
2022/08/12 02:30:31;;;;;;;10.98;9.38;;;16.70;99.90;;;;;;4996412;28;20482;-90
2022/08/12 02:32:58;;;;;;;12.10;9.57;;;16.70;99.90;;;;;;5006834;28;20074;-89
2022/08/12 02:35:26;;;;;;;14.07;10.65;;;16.70;99.90;;;;;;5003511;28;20042;-88
2022/08/12 02:37:54;;;;;;;11.52;10.00;;;16.60;99.90;;;;;;5020196;28;20053;-89
2022/08/12 02:40:21;;;;;;;12.60;9.38;;;16.70;99.90;;;;;;5019402;28;20109;-90
2022/08/12 02:42:52;;;;;;;11.55;9.68;;;16.70;99.90;;;;;;5000085;28;20047;-89
2022/08/12 02:45:27;;;;;;;11.65;9.35;;;16.70;99.90;;;;;;4996804;28;20077;-89
2022/08/12 02:47:53;;;;;;;10.93;8.93;;;16.70;99.90;;;;;;4997329;28;20102;-90
2022/08/12 02:50:19;;;;;;;11.65;9.27;;;16.80;99.90;;;;;;4998796;28;20050;-89
2022/08/12 02:52:44;;;;;;;10.75;8.95;;;16.70;99.90;;;;;;5002316;28;20044;-90
2022/08/12 02:55:13;;;;;;;12.18;9.52;;;16.70;99.90;;;;;;5005299;28;20043;-89
2022/08/12 02:57:40;;;;;;;10.90;9.45;;;16.70;99.90;;;;;;5005366;28;20061;-90
2022/08/12 03:00:06;;;;;;;11.18;10.00;;;16.60;99.90;;;;;;5004925;28;20448;-91
2022/08/12 03:02:32;;;;;;;11.50;10.32;;;16.50;99.90;;;;;;5003488;28;20026;-89
2022/08/12 03:04:58;;;;;;;11.13;10.00;;;16.50;99.90;;;;;;5018906;28;20026;-89
2022/08/12 03:07:23;;;;;;;12.70;9.88;;;16.50;99.90;;;;;;5013720;28;20042;-89
2022/08/12 03:10:09;;;;;;;11.48;9.85;;;16.50;99.90;;;;;;5006296;28;20497;-90
2022/08/12 03:12:36;;;;;;;12.05;10.63;;;16.50;99.90;;;;;;4997853;28;20046;-90
2022/08/12 03:15:08;;;;;;;11.65;10.05;;;16.40;99.90;;;;;;4996043;28;20395;-90
2022/08/12 03:17:38;;;;;;;10.80;9.68;;;16.40;99.90;;;;;;4997178;28;20088;-89
2022/08/12 03:20:04;;;;;;;15.40;10.27;;;16.40;99.90;;;;;;4979399;28;20046;-90
2022/08/12 03:22:30;;;;;;;14.88;10.25;;;16.30;99.90;;;;;;4979241;28;20090;-89
2022/08/12 03:24:55;;;;;;;12.65;10.20;;;16.30;99.90;;;;;;4995513;28;20085;-89
2022/08/12 03:27:21;;;;;;;13.13;10.02;;;16.30;99.90;;;;;;4979209;28;20065;-89
2022/08/12 03:29:49;;;;;;;13.68;10.52;;;16.20;99.90;;;;;;4995119;28;20061;-89
2022/08/12 03:32:15;;;;;;;12.18;10.10;;;16.20;99.90;;;;;;4979130;28;20046;-88
2022/08/12 03:34:41;;;;;;;13.73;10.25;;;16.20;99.90;;;;;;4996414;28;20042;-91
2022/08/12 03:37:07;;;;;;;13.57;10.75;;;16.20;99.90;;;;;;4995918;28;20054;-89
2022/08/12 03:42:20;;;;;;;13.18;10.90;;;16.30;99.90;;;;;;4979081;28;20217;-91
2022/08/12 04:01:37;;;;;;;12.25;9.55;;;16.00;99.90;;;;;;5004241;28;20042;-90
2022/08/12 04:04:03;;;;;;;12.55;10.50;;;16.00;99.90;;;;;;5011224;28;20054;-90
2022/08/12 04:06:29;;;;;;;13.60;11.38;;;16.00;99.90;;;;;;4997061;28;20077;-91
2022/08/12 04:08:56;;;;;;;13.93;10.35;;;16.00;99.90;;;;;;4995046;28;20057;-89
2022/08/12 04:14:12;;;;;;;11.40;10.15;;;16.00;99.90;;;;;;4981737;28;20066;-89
2022/08/12 04:16:38;;;;;;;15.13;9.93;;;16.00;99.90;;;;;;4995050;28;20046;-90
2022/08/12 04:19:05;;;;;;;11.35;10.15;;;16.00;99.90;;;;;;4995428;28;20054;-88
2022/08/12 04:21:35;;;;;;;12.95;10.27;;;16.00;99.90;;;;;;4994621;28;20133;-89
2022/08/12 04:24:00;;;;;;;13.10;9.77;;;16.00;99.90;;;;;;4996471;28;20080;-89
2022/08/12 04:26:29;;;;;;;12.90;10.10;;;16.00;99.90;;;;;;4995106;28;20054;-89
2022/08/12 04:28:55;;;;;;;12.00;10.57;;;16.00;99.90;;;;;;5015424;28;20053;-90
2022/08/12 04:31:39;;;;;;;13.10;10.30;;;16.10;99.90;;;;;;4997863;28;20096;-91
2022/08/12 04:34:06;;;;;;;11.23;9.88;;;16.10;99.90;;;;;;4999178;28;20130;-90
2022/08/12 04:36:31;;;;;;;10.23;9.23;;;16.10;99.90;;;;;;5008793;28;20034;-89
2022/08/12 04:38:57;;;;;;;10.80;9.70;;;16.10;99.90;;;;;;5021047;28;20050;-88
2022/08/12 04:41:24;;;;;;;12.65;9.88;;;16.20;99.90;;;;;;5013392;28;20090;-88
2022/08/12 04:43:53;;;;;;;10.35;9.25;;;16.40;99.90;;;;;;5024823;28;20137;-89
2022/08/12 04:46:19;;;;;;;9.52;8.38;;;16.70;99.90;;;;;;5016291;28;20085;-90
2022/08/12 04:48:45;;;;;;;11.95;8.15;;;17.30;99.90;;;;;;4981669;28;20045;-86
2022/08/12 04:51:11;;;;;;;10.07;7.97;;;17.80;99.90;;;;;;4997390;28;20489;-89
2022/08/12 04:53:37;;;;;;;8.93;7.43;;;18.40;99.90;;;;;;4997343;28;20050;-87
2022/08/12 04:56:03;;;;;;;7.97;7.18;;;18.80;99.90;;;;;;4997333;28;20088;-91
2022/08/12 04:58:29;;;;;;;8.05;7.18;;;19.40;99.90;;;;;;4997406;28;20104;-90
2022/08/12 05:00:54;;;;;;;8.43;7.63;;;19.80;99.90;;;;;;4997255;28;20053;-90
2022/08/12 05:03:20;;;;;;;7.63;6.82;;;20.10;99.90;;;;;;5013836;28;20046;-91
2022/08/12 05:05:45;;;;;;;7.18;6.47;;;20.20;99.90;;;;;;4981172;28;20053;-91
2022/08/12 05:08:12;;;;;;;8.18;6.47;;;20.70;99.90;;;;;;4997426;28;20049;-91
2022/08/12 05:10:38;;;;;;;7.43;6.43;;;20.80;99.90;;;;;;5014771;28;20049;-89
2022/08/12 05:13:08;;;;;;;7.72;6.03;;;21.20;99.90;;;;;;4997274;28;20042;-89
2022/08/12 05:15:36;;;;;;;7.75;6.85;;;21.40;99.90;;;;;;5001973;28;20057;-88
2022/08/12 05:18:02;;;;;;;7.18;6.28;;;21.70;99.90;;;;;;5006395;28;20457;-90
2022/08/12 05:20:28;;;;;;;8.77;6.50;;;22.00;99.90;;;;;;5039384;28;20026;-89
2022/08/12 05:23:14;;;;;;;6.35;5.65;;;22.30;99.90;;;;;;5041048;28;20042;-88
2022/08/12 05:25:44;;;;;;;6.47;5.72;;;22.60;99.90;;;;;;5016593;28;20042;-91
2022/08/12 05:28:11;;;;;;;6.45;5.85;;;22.50;99.90;;;;;;5030472;28;20062;-89
2022/08/12 05:30:37;;;;;;;6.75;5.88;;;22.70;99.90;;;;;;4987498;28;20053;-89
2022/08/12 05:33:09;;;;;;;9.25;6.03;;;23.00;99.90;;;;;;5003235;28;20084;-90
2022/08/12 05:35:40;;;;;;;6.55;5.68;;;23.20;99.90;;;;;;4970587;28;20050;-90
2022/08/12 05:40:50;;;;;;;8.98;6.50;;;23.70;99.90;;;;;;5001638;28;20052;-90
2022/08/12 05:43:18;;;;;;;8.23;6.35;;;23.90;99.90;;;;;;5018690;28;20394;-90
2022/08/12 05:45:44;;;;;;;6.65;5.90;;;24.20;99.90;;;;;;4968812;28;20045;-90
2022/08/12 05:48:10;;;;;;;5.97;5.40;;;24.50;99.90;;;;;;4984979;28;20050;-90
2022/08/12 05:50:36;;;;;;;6.65;5.75;;;24.70;99.90;;;;;;5000838;28;20045;-91
2022/08/12 05:53:02;;;;;;;6.88;5.88;;;24.60;99.90;;;;;;5016809;28;20050;-90
2022/08/12 05:55:28;;;;;;;6.40;5.40;;;24.00;99.90;;;;;;4999923;28;20504;-91
2022/08/12 05:57:54;;;;;;;7.80;5.65;;;24.50;99.90;;;;;;5000108;28;20045;-90
2022/08/12 06:00:24;;;;;;;7.25;5.70;;;24.80;99.90;;;;;;4984127;28;20057;-90
2022/08/12 06:02:59;;;;;;;7.35;5.82;;;25.00;99.90;;;;;;5000936;28;20049;-90
2022/08/12 06:05:34;;;;;;;6.35;5.55;;;24.90;99.90;;;;;;4984017;28;20068;-90
2022/08/12 06:08:02;;;;;;;7.78;5.32;;;25.20;99.90;;;;;;5004280;28;20048;-91
2022/08/12 06:10:29;;;;;;;6.07;5.38;;;25.40;99.90;;;;;;5023715;28;20040;-92
2022/08/12 06:12:57;;;;;;;8.30;5.80;;;25.60;99.90;;;;;;5002411;28;20054;-90
2022/08/12 06:15:23;;;;;;;9.68;5.97;;;25.80;99.90;;;;;;4992922;28;20513;-92
2022/08/12 06:17:48;;;;;;;8.07;5.43;;;26.20;99.90;;;;;;5003025;28;20050;-90
2022/08/12 06:20:14;;;;;;;6.60;5.65;;;26.50;99.90;;;;;;4984128;28;20069;-91
2022/08/12 06:22:41;;;;;;;6.35;5.35;;;25.80;99.90;;;;;;4983937;28;20048;-90
2022/08/12 06:25:07;;;;;;;6.25;5.38;;;26.60;99.90;;;;;;5000582;28;20050;-91
2022/08/12 06:27:41;;;;;;;7.25;5.38;;;26.70;99.90;;;;;;4982451;28;20577;-90
2022/08/12 06:30:07;;;;;;;6.43;5.43;;;26.80;99.90;;;;;;5016072;28;20058;-91
2022/08/12 06:32:33;;;;;;;7.88;5.13;;;27.30;99.90;;;;;;5000247;28;20125;-90
2022/08/12 06:34:59;;;;;;;6.07;4.72;;;26.60;99.90;;;;;;5017760;28;20096;-89
2022/08/12 06:37:25;;;;;;;5.55;4.95;;;27.60;99.90;;;;;;5021595;28;20088;-89
2022/08/12 06:39:50;;;;;;;6.97;4.90;;;27.90;99.90;;;;;;5019280;28;20041;-91
2022/08/12 06:45:00;;;;;;;4.72;4.32;;;27.40;99.90;;;;;;5031877;28;20049;-91
2022/08/12 06:47:26;;;;;;;6.50;4.60;;;27.20;99.90;;;;;;5004576;28;20084;-91
2022/08/12 06:49:51;;;;;;;6.80;4.68;;;27.50;99.90;;;;;;5022245;28;20064;-91
2022/08/12 06:52:21;;;;;;;6.85;4.63;;;27.70;99.90;;;;;;4983878;28;20041;-91
2022/08/12 06:54:47;;;;;;;6.25;4.43;;;27.90;99.90;;;;;;5016589;28;20041;-91
2022/08/12 06:57:13;;;;;;;4.97;4.05;;;28.80;99.80;;;;;;5016607;28;20108;-90
2022/08/12 06:59:39;;;;;;;4.53;4.10;;;29.50;98.70;;;;;;4982897;28;20073;-91
2022/08/12 07:02:07;;;;;;;5.57;4.95;;;29.30;99.00;;;;;;5016921;28;20053;-91
2022/08/12 07:04:34;;;;;;;5.90;4.25;;;29.10;99.40;;;;;;4998570;28;20084;-90
2022/08/12 07:06:59;;;;;;;4.63;3.92;;;29.20;99.40;;;;;;5016040;28;20054;-91
2022/08/12 07:09:27;;;;;;;6.20;4.65;;;29.30;98.50;;;;;;4983369;28;20050;-91
2022/08/12 07:11:53;;;;;;;4.60;4.15;;;29.20;98.70;;;;;;4999433;28;20165;-90
2022/08/12 07:14:19;;;;;;;5.10;4.65;;;28.80;98.70;;;;;;4998414;28;20100;-89
2022/08/12 07:16:55;;;;;;;4.53;3.67;;;28.50;98.60;;;;;;5015695;28;20049;-91
2022/08/12 07:19:24;;;;;;;4.50;4.07;;;28.40;99.20;;;;;;5016185;28;20096;-91
2022/08/12 07:21:50;;;;;;;5.43;3.90;;;28.90;98.80;;;;;;5016736;28;20034;-89
2022/08/12 07:24:15;;;;;;;6.45;3.90;;;29.60;98.40;;;;;;5015359;28;20561;-90
2022/08/12 07:26:41;;;;;;;4.45;4.00;;;29.50;98.40;;;;;;5016670;28;20104;-89
2022/08/12 07:29:08;;;;;;;5.57;4.18;;;29.60;98.40;;;;;;4999615;28;20397;-91
2022/08/12 07:31:35;;;;;;;5.75;3.85;;;29.10;98.40;;;;;;4999024;28;20561;-91
2022/08/12 07:34:01;;;;;;;5.32;4.00;;;29.20;98.30;;;;;;4983215;28;20080;-90
2022/08/12 07:36:27;;;;;;;4.00;3.55;;;28.90;98.30;;;;;;4998474;28;20090;-90
2022/08/12 07:38:52;;;;;;;4.60;4.18;;;29.70;97.80;;;;;;4997689;28;20050;-90
2022/08/12 07:41:24;;;;;;;6.95;4.20;;;29.40;97.80;;;;;;5027388;28;20026;-90
2022/08/12 07:43:55;;;;;;;6.47;4.18;;;29.60;97.20;;;;;;5022037;28;20030;-90
2022/08/12 07:46:22;;;;;;;4.70;3.70;;;29.30;97.70;;;;;;5029234;28;20046;-90
2022/08/12 07:48:55;;;;;;;3.67;3.30;;;29.70;97.30;;;;;;5008098;28;20046;-90
2022/08/12 07:51:21;;;;;;;;;;;30.70;96.90;;;;;;4984504;28;20088;-93
2022/08/12 07:53:47;;;;;;;6.22;3.90;;;30.40;96.50;;;;;;5015258;28;19921;-89
2022/08/12 07:56:13;;;;;;;5.95;3.60;;;29.80;97.20;;;;;;5016330;28;20046;-90
2022/08/12 07:58:39;;;;;;;5.40;3.70;;;29.90;97.60;;;;;;4999248;28;20393;-87
2022/08/12 08:01:10;;;;;;;4.95;4.00;;;30.80;97.10;;;;;;4982499;28;20499;-88
2022/08/12 08:04:54;;;;;;;8.43;3.65;;;30.90;95.80;;;;;;4999428;28;20501;-89
2022/08/12 08:06:24;;;;;;;4.53;4.13;;;31.20;96.10;;;;;;4992167;28;20054;-89
2022/08/12 08:08:50;;;;;;;7.30;3.95;;;30.80;96.50;;;;;;5016057;28;20048;-89
2022/08/12 08:14:02;;;;;;;4.82;4.35;;;30.80;96.30;;;;;;5002497;28;20049;-88
2022/08/12 08:16:28;;;;;;;4.85;4.20;;;30.70;96.10;;;;;;5016719;28;20049;-88
2022/08/12 08:18:58;;;;;;;4.03;3.63;;;30.80;96.70;;;;;;4999362;28;20099;-91
2022/08/12 08:21:26;;;;;;;6.22;3.63;;;31.50;96.30;;;;;;4982322;28;20045;-93
2022/08/12 08:26:36;;;;;;;4.00;3.70;;;32.30;95.40;;;;;;4998027;28;20061;-90
2022/08/12 08:29:02;;;;;;;8.13;3.33;;;32.40;95.70;;;;;;5015348;28;20089;-91
2022/08/12 08:31:28;;;;;;;5.35;3.35;;;31.90;95.10;;;;;;4999196;28;20100;-90
2022/08/12 08:33:54;;;;;;;4.05;3.22;;;31.40;95.50;;;;;;5000044;28;20046;-90
2022/08/12 08:36:20;;;;;;;3.72;3.33;;;31.90;95.30;;;;;;5015271;28;20125;-91
2022/08/12 08:38:49;;;;;;;7.45;3.65;;;32.60;95.00;;;;;;4984345;28;20046;-90
2022/08/12 08:44:01;;;;;;;4.93;3.40;;;33.10;94.90;;;;;;4999285;28;20144;-92
2022/08/12 08:46:27;;;;;;;3.95;3.50;;;33.20;94.60;;;;;;4997490;28;20133;-89
2022/08/12 08:48:53;;;;;;;5.82;4.28;;;33.20;94.40;;;;;;4998840;28;20085;-91
2022/08/12 08:51:24;;;;;;;4.55;3.60;;;33.00;94.00;;;;;;5002240;28;20048;-93
2022/08/12 08:53:52;;;;;;;3.75;3.42;;;33.30;94.20;;;;;;5004223;28;20523;-93
2022/08/12 08:56:18;;;;;;;6.88;4.38;;;32.90;94.20;;;;;;5019413;28;20049;-92
2022/08/12 08:58:44;;;;;;;5.05;4.22;;;33.40;94.30;;;;;;4987708;28;20050;-91
2022/08/12 09:01:19;;;;;;;5.50;3.78;;;33.20;94.10;;;;;;5002668;28;20065;-91
2022/08/12 09:03:45;;;;;;;4.78;3.83;;;33.00;94.30;;;;;;4986713;28;20065;-93
2022/08/12 09:06:13;;;;;;;4.95;3.60;;;33.10;93.90;;;;;;5004355;28;20042;-94
2022/08/12 09:08:42;;;;;;;4.57;3.80;;;33.30;94.20;;;;;;5021774;28;20088;-95
2022/08/12 09:13:53;;;;;;;3.88;3.30;;;33.50;93.30;;;;;;4990975;28;20133;-93
2022/08/12 09:16:19;;;;;;;6.35;3.40;;;33.20;93.80;;;;;;5007546;28;20042;-91
2022/08/12 09:18:45;;;;;;;4.35;3.55;;;33.50;93.60;;;;;;5004754;28;20054;-90
2022/08/12 09:21:11;;;;;;;3.65;3.35;;;33.50;93.10;;;;;;4997369;28;20058;-89
2022/08/12 09:23:36;;;;;;;5.05;3.70;;;33.90;92.60;;;;;;5006879;28;20074;-90
2022/08/12 09:26:02;;;;;;;7.22;3.83;;;34.00;92.30;;;;;;5003363;28;20076;-90
2022/08/12 09:28:28;;;;;;;6.85;3.70;;;34.00;92.60;;;;;;4998440;28;20065;-90
2022/08/12 09:30:57;;;;;;;5.70;3.55;;;33.80;92.30;;;;;;5000550;28;20133;-90
2022/08/12 09:33:27;;;;;;;5.00;3.25;;;33.20;92.00;;;;;;5007090;28;20037;-92
2022/08/12 09:35:53;;;;;;;4.88;3.08;;;33.70;92.10;;;;;;5019180;28;20038;-90
2022/08/12 09:38:19;;;;;;;6.68;3.17;;;33.30;91.50;;;;;;5016159;28;20064;-91
2022/08/12 09:40:46;;;;;;;4.85;2.70;;;33.30;91.90;;;;;;5034457;28;20038;-91
2022/08/12 09:46:01;;;;;;;4.70;2.80;;;33.60;91.40;;;;;;4993439;28;20054;-96
2022/08/12 09:48:27;;;;;;;3.92;2.67;;;33.70;91.20;;;;;;4989837;28;20050;-94
2022/08/12 09:50:53;;;;;;;3.58;3.28;;;34.20;90.50;;;;;;4989328;28;20061;-94
2022/08/12 09:53:23;;;;;;;4.00;2.53;;;33.80;91.00;;;;;;4988390;28;20088;-91
2022/08/12 09:55:57;;;;;;;5.07;3.03;;;34.20;91.00;;;;;;5008968;28;20124;-93
2022/08/12 09:58:29;;;;;;;5.35;2.70;;;34.00;90.10;;;;;;5010576;28;20138;-93
2022/08/12 10:00:56;;;;;;;4.32;3.10;;;33.80;90.50;;;;;;5005522;28;20402;-94
2022/08/12 10:03:25;;;;;;;5.30;2.72;;;33.80;89.70;;;;;;5005663;28;20046;-93
2022/08/12 10:05:51;;;;;;;10.88;2.92;;;33.50;90.10;;;;;;4988215;28;20051;-92
2022/08/12 10:08:17;;;;;;;4.50;3.20;;;33.80;90.30;;;;;;5007754;28;20057;-93
2022/08/12 10:13:40;;;;;;;3.78;2.45;;;34.40;89.20;;;;;;4988830;28;20085;-92
2022/08/12 10:16:34;;;;;;;3.75;2.42;;;34.70;87.30;;;;;;5020327;28;20050;-91
2022/08/12 10:19:01;;;;;;;4.60;2.50;;;34.50;86.80;;;;;;5002892;28;20054;-92
2022/08/12 10:21:35;;;;;;;6.25;3.17;;;34.30;87.80;;;;;;5018131;28;20145;-94
2022/08/12 10:24:13;;;;;;;4.03;2.60;;;34.20;87.50;;;;;;4986645;28;20054;-94
2022/08/12 10:29:38;;;;;;;2.67;2.40;;;34.90;86.00;;;;;;5018029;28;20109;-94
2022/08/12 10:32:11;;;;;;;4.35;3.28;;;35.20;86.60;;;;;;4987498;28;20075;-93
2022/08/12 10:34:38;;;;;;;8.35;2.88;;;34.80;86.60;;;;;;5003734;28;20133;-92
2022/08/12 10:37:04;;;;;;;6.10;2.35;;;34.90;86.50;;;;;;5002466;28;20054;-91
2022/08/12 10:39:33;;;;;;;2.78;2.58;;;34.40;85.50;;;;;;5018122;28;20056;-93
2022/08/12 10:44:45;;;;;;;6.50;3.25;;;34.10;85.60;;;;;;5016866;28;20393;-92
2022/08/12 10:47:11;;;;;;;4.45;2.67;;;34.00;86.20;;;;;;4987964;28;20057;-92
2022/08/12 10:49:36;;;;;;;2.15;2.00;;;34.20;85.30;;;;;;5004861;28;20033;-92
2022/08/12 10:52:03;;;;;;;2.17;1.98;;;34.60;83.10;;;;;;5022651;28;20022;-91
2022/08/12 10:54:29;;;;;;;3.47;2.03;;;34.70;82.00;;;;;;5020084;28;20038;-90
2022/08/12 10:56:56;;;;;;;2.15;1.95;;;34.40;82.30;;;;;;5006396;28;20041;-90
2022/08/12 10:59:31;;;;;;;3.95;2.35;;;34.40;82.90;;;;;;5014930;28;20054;-91
2022/08/12 11:01:57;;;;;;;2.15;2.05;;;34.00;83.80;;;;;;5025707;28;20081;-90
2022/08/12 11:04:24;;;;;;;2.35;2.10;;;33.70;83.00;;;;;;5005615;28;20060;-91
2022/08/12 11:06:49;;;;;;;4.07;2.20;;;34.20;82.00;;;;;;5024137;28;20052;-91
2022/08/12 11:09:18;;;;;;;3.97;2.00;;;34.20;82.20;;;;;;4984900;28;20513;-92
2022/08/12 11:11:47;;;;;;;2.85;2.30;;;34.60;81.20;;;;;;5017424;28;20042;-91
2022/08/12 11:14:33;;;;;;;1.63;1.52;;;34.40;82.30;;;;;;5017941;28;20478;-93
2022/08/12 11:17:02;;;;;;;2.85;1.85;;;35.00;80.40;;;;;;4999150;28;20486;-90
2022/08/12 11:19:28;;;;;;;3.15;1.70;;;34.30;80.60;;;;;;4999219;28;20050;-94
2022/08/12 11:21:54;;;;;;;2.90;1.90;;;33.40;80.10;;;;;;4998587;28;20077;-93
2022/08/12 11:24:21;;;;;;;4.25;2.03;;;33.40;81.10;;;;;;4987368;28;20059;-93
2022/08/12 11:26:50;;;;;;;3.00;1.83;;;33.40;80.50;;;;;;4987883;28;20118;-93
2022/08/12 11:29:19;;;;;;;4.78;1.85;;;33.00;81.00;;;;;;5007152;28;20054;-91
2022/08/12 11:31:45;;;;;;;2.35;1.90;;;32.90;80.50;;;;;;4984968;28;20370;-93
2022/08/12 11:34:11;;;;;;;2.78;2.33;;;32.90;81.70;;;;;;4968755;28;20056;-93
2022/08/12 11:36:37;;;;;;;2.40;2.20;;;32.80;81.40;;;;;;5002834;28;20501;-94
2022/08/12 11:39:02;;;;;;;2.95;2.25;;;32.30;82.60;;;;;;5019086;28;20363;-93
2022/08/12 11:41:28;;;;;;;2.58;2.30;;;32.60;82.20;;;;;;5018126;28;20042;-92
2022/08/12 11:44:00;;;;;;;2.20;2.00;;;32.40;82.30;;;;;;5017090;28;20142;-93
2022/08/12 11:46:26;;;;;;;3.40;2.38;;;32.50;82.50;;;;;;4983108;28;20136;-92
2022/08/12 11:48:52;;;;;;;3.55;2.13;;;32.40;81.90;;;;;;4999752;28;20089;-91
2022/08/12 11:51:18;;;;;;;2.25;2.05;;;32.50;82.50;;;;;;5018518;28;20065;-90
2022/08/12 11:53:44;;;;;;;3.22;1.90;;;32.40;82.00;;;;;;4999551;28;20078;-93
2022/08/12 11:56:09;;;;;;;1.67;1.55;;;32.40;81.30;;;;;;5018402;28;20427;-92
2022/08/12 11:58:35;;;;;;;3.30;2.00;;;32.60;82.30;;;;;;5000490;28;20109;-92
2022/08/12 12:01:01;;;;;;;3.47;2.30;;;32.50;81.60;;;;;;5016112;28;20405;-90
2022/08/12 12:03:32;;;;;;;3.42;2.28;;;32.40;82.10;;;;;;5018113;28;20125;-93
2022/08/12 12:05:58;;;;;;;2.50;2.08;;;32.10;82.00;;;;;;4998766;28;20446;-91
2022/08/12 12:08:24;;;;;;;2.88;1.98;;;32.20;81.50;;;;;;4982709;28;20065;-92
2022/08/12 12:10:50;;;;;;;7.22;2.15;;;32.40;80.40;;;;;;4983545;28;20054;-91
2022/08/12 12:13:17;;;;;;;2.97;2.20;;;32.10;81.60;;;;;;4998679;28;20484;-90
2022/08/12 12:15:43;;;;;;;3.78;2.08;;;32.20;81.00;;;;;;4998647;28;20042;-90
2022/08/12 12:18:19;;;;;;;3.00;2.10;;;32.00;81.90;;;;;;4989638;28;20389;-91
2022/08/12 12:20:45;;;;;;;3.03;2.00;;;32.10;81.20;;;;;;4989116;28;20060;-89
2022/08/12 12:23:10;;;;;;;3.08;2.42;;;32.00;81.70;;;;;;5020697;28;20042;-91
2022/08/12 12:25:36;;;;;;;5.80;2.58;;;32.20;81.60;;;;;;5020280;28;20045;-92
2022/08/12 12:28:02;;;;;;;2.60;1.90;;;32.30;82.00;;;;;;5002333;28;20081;-91
2022/08/12 12:30:27;;;;;;;5.53;2.00;;;32.20;80.90;;;;;;4996952;28;20485;-93
2022/08/12 12:32:56;;;;;;;3.05;2.38;;;32.20;81.60;;;;;;5006797;28;20045;-93
2022/08/12 12:35:22;;;;;;;2.30;2.10;;;32.20;81.00;;;;;;5001746;28;20137;-91
2022/08/12 12:37:58;;;;;;;2.78;2.40;;;32.20;81.40;;;;;;5017098;28;20038;-89
2022/08/12 12:40:26;;;;;;;3.03;2.65;;;32.20;82.90;;;;;;4971678;28;20509;-92
2022/08/12 12:42:51;;;;;;;2.95;2.30;;;32.10;82.00;;;;;;5026862;28;20041;-91
2022/08/12 12:45:17;;;;;;;3.08;2.55;;;32.20;81.60;;;;;;5004355;28;20144;-91
2022/08/12 12:47:57;;;;;;;3.00;2.58;;;32.40;82.10;;;;;;5015309;28;20046;-93
2022/08/12 12:50:27;;;;;;;5.90;2.15;;;32.20;80.80;;;;;;5017417;28;20042;-94
2022/08/12 12:52:53;;;;;;;3.50;2.25;;;31.80;79.30;;;;;;5000437;28;20121;-92
2022/08/12 12:55:19;;;;;;;3.90;2.45;;;32.10;81.20;;;;;;4985805;28;20512;-91
2022/08/12 12:57:45;;;;;;;3.15;2.20;;;32.30;81.00;;;;;;4985770;28;20097;-89
2022/08/12 13:00:14;;;;;;;3.67;2.78;;;32.40;80.40;;;;;;5013989;28;20077;-88
2022/08/12 13:02:54;;;;;;;3.55;2.40;;;32.30;81.50;;;;;;4981792;28;20398;-94
2022/08/12 13:05:30;;;;;;;2.75;2.50;;;32.00;82.30;;;;;;4982194;28;20125;-93
2022/08/12 13:07:58;;;;;;;4.90;2.60;;;32.00;82.10;;;;;;4983434;28;20479;-93
2022/08/12 13:10:27;;;;;;;3.13;2.45;;;32.10;82.50;;;;;;5016816;28;20080;-91
2022/08/12 13:12:53;;;;;;;4.10;2.63;;;32.10;82.90;;;;;;4989521;28;20091;-92
2022/08/12 13:15:18;;;;;;;2.63;2.42;;;32.10;82.80;;;;;;4999968;28;20096;-93
2022/08/12 13:17:48;;;;;;;4.03;2.45;;;32.20;82.80;;;;;;4972248;28;20046;-94
2022/08/12 13:20:15;;;;;;;4.38;2.30;;;32.20;81.90;;;;;;4971786;28;20113;-89
2022/08/12 13:22:41;;;;;;;3.03;2.70;;;32.00;82.30;;;;;;5001881;28;20042;-93
2022/08/12 13:25:14;;;;;;;4.47;2.65;;;32.20;82.80;;;;;;4991406;28;20124;-93
2022/08/12 13:27:43;;;;;;;;;;;32.30;83.00;;;;;;5003996;28;20508;-93
2022/08/12 13:30:11;;;;;;;4.35;2.40;;;32.20;82.60;;;;;;5000129;28;20285;-92
2022/08/12 13:32:44;;;;;;;5.45;2.53;;;32.30;82.30;;;;;;5000402;28;20050;-92
2022/08/12 13:35:09;;;;;;;3.03;2.40;;;32.50;81.90;;;;;;4998969;28;20079;-93
2022/08/12 13:37:35;;;;;;;2.80;2.45;;;32.30;83.50;;;;;;5000615;28;20042;-91
2022/08/12 13:40:03;;;;;;;4.75;2.67;;;32.30;83.50;;;;;;5004155;28;20122;-93
2022/08/12 13:42:29;;;;;;;4.55;2.58;;;32.50;82.90;;;;;;5015520;28;20113;-93
2022/08/12 13:44:55;;;;;;;2.67;2.50;;;32.20;83.30;;;;;;5005420;28;20037;-91
2022/08/12 13:47:21;;;;;;;2.70;2.50;;;32.10;83.00;;;;;;5023663;28;20122;-91
2022/08/12 13:49:48;;;;;;;5.03;2.60;;;32.00;83.00;;;;;;5034832;28;20468;-92
2022/08/12 13:52:17;;;;;;;2.80;2.47;;;32.20;84.00;;;;;;4988970;28;20107;-91
2022/08/12 13:54:45;;;;;;;4.28;2.50;;;32.40;83.20;;;;;;5004084;28;20129;-93
2022/08/12 13:57:13;;;;;;;2.90;2.60;;;32.40;83.20;;;;;;5020124;28;20385;-90
2022/08/12 13:59:40;;;;;;;3.45;2.38;;;32.30;83.00;;;;;;4993550;28;20054;-93
2022/08/12 14:02:10;;;;;;;4.57;2.55;;;32.20;82.40;;;;;;5023011;28;20034;-94
2022/08/12 14:04:38;;;;;;;4.40;2.72;;;32.00;82.70;;;;;;4986789;28;20054;-92
2022/08/12 14:07:07;;;;;;;3.20;2.90;;;32.20;82.80;;;;;;5033363;28;20102;-91
2022/08/12 14:10:35;;;;;;;2.90;2.70;;;32.00;82.10;;;;;;5011430;28;20046;-92
2022/08/12 14:12:23;;;;;;;3.83;2.47;;;32.00;82.60;;;;;;4992956;28;20435;-92
2022/08/12 14:14:49;;;;;;;4.68;2.60;;;32.00;82.90;;;;;;5005137;28;20050;-92
2022/08/12 14:17:20;;;;;;;4.20;2.80;;;32.10;82.30;;;;;;5004770;28;20100;-92
2022/08/12 14:22:32;;;;;;;3.38;2.80;;;32.00;82.80;;;;;;5021639;28;20092;-93
2022/08/12 14:25:15;;;;;;;3.72;2.78;;;32.00;83.50;;;;;;4977113;28;20133;-90
2022/08/12 14:27:43;;;;;;;3.20;2.90;;;31.90;83.70;;;;;;5007674;28;20061;-92
2022/08/12 14:30:15;;;;;;;5.93;2.88;;;32.00;83.20;;;;;;5018614;28;20093;-92
2022/08/12 14:32:40;;;;;;;2.80;2.60;;;31.60;83.20;;;;;;5002224;28;20093;-92
2022/08/12 14:35:06;;;;;;;3.58;2.65;;;31.90;83.00;;;;;;5003243;28;20084;-91
2022/08/12 14:37:32;;;;;;;3.70;2.58;;;32.00;82.80;;;;;;4999622;28;20125;-89
2022/08/12 14:39:59;;;;;;;2.88;2.63;;;31.80;83.10;;;;;;5002743;28;20045;-90
2022/08/12 14:42:25;;;;;;;2.95;2.55;;;31.80;83.00;;;;;;4984059;28;20078;-91
2022/08/12 14:44:50;;;;;;;3.55;2.70;;;32.10;83.00;;;;;;4985558;28;20057;-90
2022/08/12 14:47:18;;;;;;;3.38;2.72;;;31.90;82.70;;;;;;5000560;28;20469;-90